createdAt,value
2019-04-04T00:01:44.262Z,2.57
2019-04-04T00:04:12.497Z,2.27
2019-04-04T00:06:40.725Z,2.93
2019-04-04T00:09:10.906Z,3.67
2019-04-04T00:11:39.155Z,5.50
2019-04-04T00:14:07.386Z,3.37
2019-04-04T00:16:35.628Z,3.77
2019-04-04T00:19:04.781Z,3.53
2019-04-04T00:21:33.960Z,3.90
2019-04-04T00:24:02.845Z,3.03
2019-04-04T00:26:31.071Z,2.53
2019-04-04T00:29:01.361Z,3.43
2019-04-04T00:31:29.607Z,3.53
2019-04-04T00:33:57.836Z,4.30
2019-04-04T00:36:26.074Z,4.07
2019-04-04T00:38:54.325Z,5.17
2019-04-04T00:41:22.561Z,5.25
2019-04-04T00:43:51.784Z,4.10
2019-04-04T00:46:22.349Z,3.07
2019-04-04T00:48:50.593Z,3.80
2019-04-04T00:51:18.822Z,3.80
2019-04-04T00:53:47.073Z,3.30
2019-04-04T00:56:16.088Z,6.20
2019-04-04T00:58:45.274Z,5.47
2019-04-04T01:01:13.568Z,3.62
2019-04-04T01:03:41.807Z,4.27
2019-04-04T01:06:10.034Z,4.47
2019-04-04T01:08:39.001Z,4.40
2019-04-04T01:11:07.514Z,4.70
2019-04-04T01:13:35.742Z,4.00
2019-04-04T01:16:04.971Z,3.63
2019-04-04T01:18:36.651Z,5.00
2019-04-04T01:21:03.352Z,5.80
2019-04-04T01:23:31.588Z,4.00
2019-04-04T01:26:01.318Z,4.47
2019-04-04T01:28:29.780Z,4.73
2019-04-04T01:30:58.022Z,4.37
2019-04-04T01:33:26.262Z,4.87
2019-04-04T01:35:54.607Z,4.63
2019-04-04T01:38:22.929Z,5.00
2019-04-04T01:40:51.167Z,3.77
2019-04-04T01:43:19.402Z,4.22
2019-04-04T01:45:47.710Z,4.17
2019-04-04T01:48:18.456Z,3.57
2019-04-04T01:50:45.940Z,3.93
2019-04-04T01:53:14.261Z,4.60
2019-04-04T01:55:42.566Z,4.03
2019-04-04T01:58:10.819Z,3.60
2019-04-04T02:00:39.292Z,3.90
2019-04-04T02:03:07.528Z,4.87
2019-04-04T02:05:35.753Z,4.13
2019-04-04T02:08:04.940Z,4.27
2019-04-04T02:10:34.850Z,3.73
2019-04-04T02:13:03.490Z,4.33
2019-04-04T02:15:31.740Z,3.77
2019-04-04T02:18:00.041Z,3.90
2019-04-04T02:20:28.309Z,4.40
2019-04-04T02:22:56.562Z,3.23
2019-04-04T02:25:24.799Z,4.27
2019-04-04T02:27:53.032Z,3.77
2019-04-04T02:30:21.332Z,3.77
2019-04-04T02:32:49.555Z,3.93
2019-04-04T02:35:17.790Z,4.20
2019-04-04T02:37:46.047Z,4.33
2019-04-04T02:40:14.309Z,4.95
2019-04-04T02:42:45.026Z,4.63
2019-04-04T02:45:13.278Z,3.52
2019-04-04T02:47:41.515Z,4.73
2019-04-04T02:50:09.759Z,4.13
2019-04-04T02:52:38.021Z,4.23
2019-04-04T02:55:06.323Z,5.00
2019-04-04T02:57:34.553Z,5.07
2019-04-04T03:00:02.920Z,4.60
2019-04-04T03:02:31.325Z,5.37
2019-04-04T03:04:59.561Z,6.47
2019-04-04T03:07:30.798Z,5.43
2019-04-04T03:09:57.874Z,5.27
2019-04-04T03:12:26.982Z,4.13
2019-04-04T03:14:58.074Z,4.47
2019-04-04T03:17:29.204Z,5.00
2019-04-04T03:19:56.265Z,4.67
2019-04-04T03:22:27.147Z,4.50
2019-04-04T03:24:54.481Z,6.37
2019-04-04T03:27:25.822Z,3.62
2019-04-04T03:29:52.709Z,7.13
2019-04-04T03:32:20.964Z,6.37
2019-04-04T03:34:51.114Z,4.43
2019-04-04T03:37:19.219Z,4.70
2019-04-04T03:39:51.755Z,4.20
2019-04-04T03:42:17.415Z,4.33
2019-04-04T03:44:45.665Z,6.77
2019-04-04T03:47:13.904Z,5.57
2019-04-04T03:49:42.138Z,7.17
2019-04-04T03:52:11.552Z,5.27
2019-04-04T03:54:40.019Z,4.87
2019-04-04T03:57:11.082Z,5.47
2019-04-04T03:59:38.222Z,7.30
2019-04-04T04:02:06.451Z,4.50
2019-04-04T04:04:34.670Z,7.33
2019-04-04T04:07:03.329Z,4.77
2019-04-04T04:09:31.566Z,5.33
2019-04-04T04:11:59.794Z,4.77
2019-04-04T04:14:28.056Z,5.45
2019-04-04T04:16:56.293Z,4.73
2019-04-04T04:19:29.346Z,4.33
2019-04-04T04:21:54.522Z,4.87
2019-04-04T04:24:22.753Z,5.00
2019-04-04T04:26:50.995Z,4.47
2019-04-04T04:29:19.242Z,6.30
2019-04-04T04:31:49.207Z,5.63
2019-04-04T04:34:17.459Z,3.60
2019-04-04T04:36:47.951Z,5.93
2019-04-04T04:39:15.734Z,4.17
2019-04-04T04:41:43.974Z,4.77
2019-04-04T04:44:12.298Z,4.10
2019-04-04T04:46:40.542Z,5.73
2019-04-04T04:49:08.847Z,4.07
2019-04-04T04:51:37.108Z,5.20
2019-04-04T04:54:05.823Z,4.97
2019-04-04T04:56:34.106Z,4.47
2019-04-04T04:59:02.360Z,5.97
2019-04-04T05:01:30.655Z,5.13
2019-04-04T05:03:58.894Z,4.73
2019-04-04T05:06:27.134Z,5.63
2019-04-04T05:08:55.377Z,5.20
2019-04-04T05:11:23.619Z,5.25
2019-04-04T05:13:51.898Z,6.03
2019-04-04T05:16:20.134Z,3.70
2019-04-04T05:18:48.414Z,4.40
2019-04-04T05:21:24.800Z,4.57
2019-04-04T05:23:47.015Z,4.87
2019-04-04T05:26:16.013Z,5.20
2019-04-04T05:28:44.269Z,7.13
2019-04-04T05:31:12.509Z,4.17
2019-04-04T05:33:40.736Z,7.20
2019-04-04T05:36:08.977Z,7.70
2019-04-04T05:38:37.212Z,7.07
2019-04-04T05:41:05.431Z,7.37
2019-04-04T05:43:37.076Z,7.13
2019-04-04T05:46:03.722Z,5.50
2019-04-04T05:48:31.965Z,6.30
2019-04-04T05:51:00.206Z,5.30
2019-04-04T05:53:28.465Z,4.77
2019-04-04T05:55:57.122Z,4.80
2019-04-04T05:58:27.033Z,6.07
2019-04-04T06:00:57.616Z,5.27
2019-04-04T06:03:25.259Z,4.43
2019-04-04T06:05:53.648Z,5.03
2019-04-04T06:08:22.554Z,6.07
2019-04-04T06:10:50.935Z,3.97
2019-04-04T06:13:22.137Z,4.70
2019-04-04T06:15:49.149Z,4.53
2019-04-04T06:18:17.442Z,3.97
2019-04-04T06:20:48.371Z,4.13
2019-04-04T06:23:15.729Z,4.42
2019-04-04T06:25:44.133Z,3.67
2019-04-04T06:28:12.677Z,4.13
2019-04-04T06:30:43.425Z,7.33
2019-04-04T06:33:11.094Z,4.43
2019-04-04T06:35:39.892Z,4.60
2019-04-04T06:38:08.361Z,4.50
2019-04-04T06:40:36.593Z,4.70
2019-04-04T06:43:10.336Z,4.43
2019-04-04T06:45:35.368Z,4.00
2019-04-04T06:48:03.668Z,3.83
2019-04-04T06:50:32.007Z,3.67
2019-04-04T06:53:00.267Z,3.60
2019-04-04T06:55:29.378Z,4.33
2019-04-04T06:57:57.889Z,4.93
2019-04-04T07:00:26.139Z,5.03
2019-04-04T07:02:55.986Z,5.47
2019-04-04T07:05:24.590Z,5.05
2019-04-04T07:07:52.828Z,4.23
2019-04-04T07:10:21.968Z,5.10
2019-04-04T07:12:50.403Z,4.30
2019-04-04T07:15:18.637Z,3.40
2019-04-04T07:17:46.867Z,3.73
2019-04-04T07:20:16.957Z,4.83
2019-04-04T07:22:45.166Z,4.83
2019-04-04T07:25:13.419Z,4.28
2019-04-04T07:27:41.678Z,4.20
2019-04-04T07:30:09.969Z,4.15
2019-04-04T07:32:40.715Z,3.50
2019-04-04T07:35:08.547Z,4.50
2019-04-04T07:37:36.774Z,5.13
2019-04-04T07:40:08.331Z,4.60
2019-04-04T07:42:36.663Z,5.37
2019-04-04T07:45:06.209Z,6.87
2019-04-04T07:47:34.439Z,4.90
2019-04-04T07:50:02.712Z,5.20
2019-04-04T07:52:32.774Z,4.97
2019-04-04T07:55:00.977Z,4.37
2019-04-04T07:57:30.273Z,3.60
2019-04-04T07:59:58.880Z,4.77
2019-04-04T08:02:27.106Z,4.87
2019-04-04T08:04:55.370Z,4.23
2019-04-04T08:07:23.601Z,4.10
2019-04-04T08:09:51.839Z,4.30
2019-04-04T08:12:20.093Z,4.30
2019-04-04T08:14:48.342Z,3.50
2019-04-04T08:17:18.913Z,4.05
2019-04-04T08:19:58.888Z,3.50
2019-04-04T08:22:16.682Z,3.00
2019-04-04T08:24:45.560Z,3.17
2019-04-04T08:27:13.793Z,5.40
2019-04-04T08:29:42.041Z,3.35
2019-04-04T08:32:10.282Z,4.92
2019-04-04T08:34:38.628Z,3.87
2019-04-04T08:37:06.936Z,3.87
2019-04-04T08:39:35.166Z,4.03
2019-04-04T08:42:03.417Z,4.13
2019-04-04T08:44:31.653Z,4.30
2019-04-04T08:46:59.887Z,3.42
2019-04-04T08:49:28.143Z,4.17
2019-04-04T08:51:56.397Z,5.17
2019-04-04T08:54:24.622Z,4.13
2019-04-04T08:56:52.865Z,5.53
2019-04-04T08:59:21.096Z,4.47
2019-04-04T09:01:49.341Z,4.17
2019-04-04T09:04:19.249Z,4.33
2019-04-04T09:06:47.505Z,5.40
2019-04-04T09:09:17.362Z,4.83
2019-04-04T09:11:45.654Z,5.77
2019-04-04T09:14:13.892Z,5.00
2019-04-04T09:16:42.137Z,3.90
2019-04-04T09:19:10.403Z,4.37
2019-04-04T09:21:38.639Z,3.70
2019-04-04T09:24:06.871Z,3.27
2019-04-04T09:26:35.482Z,3.70
2019-04-04T09:29:03.717Z,4.17
2019-04-04T09:31:31.955Z,3.57
2019-04-04T09:34:00.197Z,4.93
2019-04-04T09:36:28.429Z,3.33
2019-04-04T09:38:56.670Z,3.73
2019-04-04T09:41:25.183Z,4.20
2019-04-04T09:43:53.418Z,5.13
2019-04-04T09:46:21.713Z,3.77
2019-04-04T09:48:49.959Z,4.00
2019-04-04T09:51:18.194Z,3.85
2019-04-04T09:53:53.345Z,3.57
2019-04-04T09:56:16.412Z,3.80
2019-04-04T09:58:44.654Z,3.90
2019-04-04T10:01:12.898Z,3.23
2019-04-04T10:03:41.217Z,4.40
2019-04-04T10:06:09.449Z,3.17
2019-04-04T10:08:38.945Z,2.70
2019-04-04T10:11:08.722Z,3.43
2019-04-04T10:13:36.934Z,2.93
2019-04-04T10:16:05.240Z,4.27
2019-04-04T10:18:35.121Z,3.47
2019-04-04T10:21:11.854Z,3.97
2019-04-04T10:23:33.319Z,4.57
2019-04-04T10:26:01.563Z,2.97
2019-04-04T10:28:29.873Z,3.27
2019-04-04T10:30:58.146Z,3.60
2019-04-04T10:33:26.399Z,1.97
2019-04-04T10:35:54.624Z,3.33
2019-04-04T10:38:22.861Z,4.33
2019-04-04T10:40:51.457Z,5.10
2019-04-04T10:43:19.703Z,3.13
2019-04-04T10:45:48.016Z,3.57
2019-04-04T10:48:16.272Z,1.80
2019-04-04T10:50:44.503Z,3.63
2019-04-04T10:53:12.735Z,2.42
2019-04-04T10:55:40.991Z,3.77
2019-04-04T10:58:10.868Z,3.20
2019-04-04T11:00:39.105Z,3.73
2019-04-04T11:03:07.824Z,3.57
2019-04-04T11:05:36.049Z,3.50
2019-04-04T11:08:04.786Z,3.87
2019-04-04T11:10:33.115Z,3.00
2019-04-04T11:13:02.886Z,3.20
2019-04-04T11:15:31.458Z,2.93
2019-04-04T11:17:59.705Z,4.43
2019-04-04T11:20:28.019Z,2.50
2019-04-04T11:22:56.242Z,6.33
2019-04-04T11:25:24.476Z,3.73
2019-04-04T11:27:52.805Z,3.37
2019-04-04T11:30:21.033Z,3.30
2019-04-04T11:32:49.282Z,3.33
2019-04-04T11:35:17.522Z,3.12
2019-04-04T11:37:45.761Z,3.47
2019-04-04T11:40:14.338Z,4.03
2019-04-04T11:42:42.575Z,3.43
2019-04-04T11:45:10.799Z,5.13
2019-04-04T11:47:39.048Z,2.57
2019-04-04T11:50:07.558Z,2.97
2019-04-04T11:52:35.865Z,4.33
2019-04-04T11:55:04.684Z,2.47
2019-04-04T11:57:32.927Z,3.30
2019-04-04T12:00:01.176Z,2.90
2019-04-04T12:02:32.625Z,2.90
2019-04-04T12:05:00.160Z,2.63
2019-04-04T12:07:28.393Z,4.00
2019-04-04T12:10:06.739Z,2.37
2019-04-04T12:12:26.681Z,4.70
2019-04-04T12:14:55.073Z,3.43
2019-04-04T12:17:23.323Z,4.10
2019-04-04T12:19:51.565Z,3.33
2019-04-04T12:22:23.042Z,3.57
2019-04-04T12:24:51.306Z,3.27
2019-04-04T12:27:19.536Z,3.17
2019-04-04T12:29:47.775Z,3.10
2019-04-04T12:32:18.170Z,5.63
2019-04-04T12:34:46.409Z,3.90
2019-04-04T12:37:14.661Z,3.27
2019-04-04T12:39:44.508Z,4.20
2019-04-04T12:42:12.980Z,3.80
2019-04-04T12:44:41.218Z,3.17
2019-04-04T12:47:09.468Z,3.50
2019-04-04T12:49:37.707Z,3.20
2019-04-04T12:52:05.941Z,5.78
2019-04-04T12:54:34.206Z,3.90
2019-04-04T12:57:02.436Z,3.27
2019-04-04T12:59:30.681Z,3.33
2019-04-04T13:01:58.945Z,5.20
2019-04-04T13:04:31.884Z,5.70
2019-04-04T13:06:58.165Z,3.90
2019-04-04T13:09:26.411Z,4.83
2019-04-04T13:11:54.728Z,3.00
2019-04-04T13:14:22.994Z,3.43
2019-04-04T13:16:51.291Z,6.30
2019-04-04T13:19:19.541Z,3.20
2019-04-04T13:21:48.262Z,3.00
2019-04-04T13:24:16.519Z,4.47
2019-04-04T13:26:44.750Z,3.23
2019-04-04T13:29:13.021Z,3.23
2019-04-04T13:31:41.271Z,2.77
2019-04-04T13:34:09.913Z,2.93
2019-04-04T13:36:38.164Z,3.17
2019-04-04T13:39:09.865Z,3.87
2019-04-04T13:41:38.182Z,3.40
2019-04-04T13:44:06.418Z,3.63
2019-04-04T13:46:34.672Z,2.03
2019-04-04T13:49:02.914Z,3.53
2019-04-04T13:51:31.145Z,3.83
2019-04-04T13:54:01.026Z,2.73
2019-04-04T13:56:29.499Z,2.87
2019-04-04T13:59:00.935Z,4.10
2019-04-04T14:01:27.853Z,2.70
2019-04-04T14:03:56.424Z,3.40
2019-04-04T14:06:24.802Z,3.57
2019-04-04T14:08:59.555Z,2.90
2019-04-04T14:11:27.990Z,4.53
2019-04-04T14:13:58.701Z,3.33
2019-04-04T14:16:26.213Z,2.73
2019-04-04T14:18:54.447Z,2.73
2019-04-04T14:21:22.858Z,3.52
2019-04-04T14:23:52.933Z,3.47
2019-04-04T14:26:21.154Z,3.40
2019-04-04T14:28:49.391Z,3.00
2019-04-04T14:31:17.687Z,3.15
2019-04-04T14:33:45.927Z,5.90
2019-04-04T14:36:14.787Z,3.63
2019-04-04T14:38:43.290Z,3.13
2019-04-04T14:41:11.988Z,3.27
2019-04-04T14:43:40.437Z,3.00
2019-04-04T14:46:08.693Z,2.97
2019-04-04T14:48:37.594Z,2.30
2019-04-04T14:51:05.833Z,3.80
2019-04-04T14:53:34.089Z,2.40
2019-04-04T14:56:02.344Z,4.83
2019-04-04T14:58:31.011Z,3.97
2019-04-04T15:00:59.460Z,3.53
2019-04-04T15:03:27.686Z,3.10
2019-04-04T15:05:56.002Z,4.37
2019-04-04T15:08:24.245Z,4.13
2019-04-04T15:10:52.481Z,4.17
2019-04-04T15:13:20.729Z,4.30
2019-04-04T15:16:11.905Z,4.40
2019-04-04T15:18:40.232Z,3.90
2019-04-04T15:21:09.269Z,3.87
2019-04-04T15:23:37.522Z,3.60
2019-04-04T15:26:05.766Z,2.67
2019-04-04T15:28:34.005Z,3.53
2019-04-04T15:31:02.298Z,4.12
2019-04-04T15:33:30.519Z,5.23
2019-04-04T15:35:58.765Z,4.50
2019-04-04T15:38:27.028Z,5.43
2019-04-04T15:40:55.258Z,3.97
2019-04-04T15:43:23.497Z,6.10
2019-04-04T15:45:51.792Z,4.47
2019-04-04T15:48:20.100Z,6.10
2019-04-04T15:50:48.325Z,4.97
2019-04-04T15:53:16.578Z,6.43
2019-04-04T15:55:44.829Z,5.20
2019-04-04T15:58:13.078Z,5.15
2019-04-04T16:00:41.317Z,4.17
2019-04-04T16:03:09.550Z,6.53
2019-04-04T16:05:38.846Z,4.70
2019-04-04T16:08:07.347Z,4.43
2019-04-04T16:10:35.855Z,4.40
2019-04-04T16:13:04.708Z,4.08
2019-04-04T16:15:32.946Z,4.20
2019-04-04T16:18:01.488Z,4.47
2019-04-04T16:20:29.828Z,6.40
2019-04-04T16:22:58.094Z,6.00
2019-04-04T16:25:26.329Z,6.63
2019-04-04T16:27:54.632Z,6.03
2019-04-04T16:30:23.211Z,7.25
2019-04-04T16:32:51.520Z,6.73
2019-04-04T16:35:19.759Z,7.87
2019-04-04T16:37:48.017Z,6.97
2019-04-04T16:40:17.626Z,6.63
2019-04-04T16:42:45.874Z,8.73
2019-04-04T16:45:14.150Z,8.88
2019-04-04T16:47:42.386Z,8.17
2019-04-04T16:50:10.617Z,9.97
2019-04-04T16:52:38.935Z,10.03
2019-04-04T16:55:07.210Z,9.87
2019-04-04T16:57:35.446Z,10.80
2019-04-04T17:00:04.935Z,12.70
2019-04-04T17:02:33.210Z,12.80
2019-04-04T17:05:01.454Z,14.77
2019-04-04T17:07:29.787Z,14.43
2019-04-04T17:09:58.027Z,15.70
2019-04-04T17:12:26.455Z,17.30
2019-04-04T17:14:54.777Z,15.00
2019-04-04T17:17:23.029Z,14.00
2019-04-04T17:19:51.341Z,16.50
2019-04-04T17:22:19.606Z,17.77
2019-04-04T17:24:47.865Z,15.80
2019-04-04T17:27:16.108Z,14.90
2019-04-04T17:29:44.378Z,13.97
2019-04-04T17:32:12.684Z,16.80
2019-04-04T17:34:41.062Z,18.33
2019-04-04T17:37:09.455Z,17.80
2019-04-04T17:39:37.698Z,19.55
2019-04-04T17:42:06.493Z,19.53
2019-04-04T17:44:36.528Z,17.20
2019-04-04T17:47:05.368Z,17.87
2019-04-04T17:49:34.035Z,18.30
2019-04-04T17:52:02.371Z,18.07
2019-04-04T17:54:30.611Z,20.43
2019-04-04T17:56:59.379Z,20.83
2019-04-04T17:59:30.221Z,18.93
2019-04-04T18:01:57.658Z,22.10
2019-04-04T18:04:25.896Z,18.73
2019-04-04T18:06:54.360Z,20.43
2019-04-04T18:09:31.772Z,21.50
2019-04-04T18:11:52.561Z,21.93
2019-04-04T18:14:20.813Z,19.27
2019-04-04T18:16:49.058Z,21.97
2019-04-04T18:19:17.371Z,24.73
2019-04-04T18:21:45.909Z,19.40
2019-04-04T18:24:14.156Z,20.15
2019-04-04T18:26:42.402Z,22.30
2019-04-04T18:29:10.670Z,19.77
2019-04-04T18:31:38.901Z,22.27
2019-04-04T18:34:08.692Z,20.10
2019-04-04T18:36:37.196Z,20.93
2019-04-04T18:39:07.706Z,21.10
2019-04-04T18:41:35.946Z,22.63
2019-04-04T18:44:05.235Z,20.37
2019-04-04T18:46:33.482Z,23.63
2019-04-04T18:49:01.792Z,19.50
2019-04-04T18:51:30.122Z,20.77
2019-04-04T18:53:58.414Z,19.93
2019-04-04T18:56:26.657Z,18.80
2019-04-04T18:58:54.921Z,22.53
2019-04-04T19:01:23.167Z,18.57
2019-04-04T19:03:51.445Z,19.20
2019-04-04T19:06:19.952Z,19.30
2019-04-04T19:08:50.563Z,18.60
2019-04-04T19:11:18.163Z,19.27
2019-04-04T19:13:46.424Z,18.13
2019-04-04T19:16:14.664Z,20.60
2019-04-04T19:18:42.984Z,16.40
2019-04-04T19:21:11.247Z,17.77
2019-04-04T19:23:49.232Z,16.93
2019-04-04T19:26:09.462Z,18.02
2019-04-04T19:28:37.755Z,17.83
2019-04-04T19:31:06.221Z,17.40
2019-04-04T19:33:34.504Z,16.83
2019-04-04T19:36:02.768Z,17.70
2019-04-04T19:38:31.014Z,16.40
2019-04-04T19:40:59.254Z,16.47
2019-04-04T19:43:27.889Z,16.37
2019-04-04T19:45:56.611Z,15.23
2019-04-04T19:48:24.910Z,15.40
2019-04-04T19:50:53.174Z,14.47
2019-04-04T19:53:21.427Z,15.37
2019-04-04T19:55:49.658Z,14.47
2019-04-04T19:58:17.912Z,14.15
2019-04-04T20:00:46.170Z,14.50
2019-04-04T20:03:14.406Z,16.07
2019-04-04T20:05:44.477Z,13.70
2019-04-04T20:08:12.655Z,15.60
2019-04-04T20:10:40.949Z,13.80
2019-04-04T20:13:09.212Z,13.60
2019-04-04T20:15:37.463Z,13.40
2019-04-04T20:18:05.817Z,13.10
2019-04-04T20:20:34.088Z,12.30
2019-04-04T20:23:02.374Z,12.87
2019-04-04T20:25:30.624Z,12.03
2019-04-04T20:27:58.879Z,12.63
2019-04-04T20:30:37.773Z,11.73
2019-04-04T20:33:07.037Z,14.63
2019-04-04T20:35:35.303Z,14.17
2019-04-04T20:38:03.574Z,12.63
2019-04-04T20:40:31.807Z,14.03
2019-04-04T20:43:00.498Z,11.50
2019-04-04T20:45:28.810Z,13.27
2019-04-04T20:47:58.056Z,13.00
2019-04-04T20:50:26.304Z,13.00
2019-04-04T20:52:54.538Z,12.43
2019-04-04T20:55:22.779Z,13.13
2019-04-04T20:57:51.042Z,10.23
2019-04-04T21:00:19.285Z,12.68
2019-04-04T21:02:47.515Z,12.63
2019-04-04T21:05:16.027Z,13.60
2019-04-04T21:07:44.277Z,13.80
2019-04-04T21:10:12.498Z,13.10
2019-04-04T21:12:40.765Z,14.67
2019-04-04T21:15:08.996Z,13.73
2019-04-04T21:17:37.248Z,15.93
2019-04-04T21:20:06.629Z,13.00
2019-04-04T21:22:34.881Z,12.00
2019-04-04T21:25:03.299Z,13.83
2019-04-04T21:27:31.720Z,13.57
2019-04-04T21:29:59.962Z,15.60
2019-04-04T21:32:28.205Z,13.20
2019-04-04T21:34:56.463Z,13.33
2019-04-04T21:37:24.718Z,17.70
2019-04-04T21:39:53.037Z,13.37
2019-04-04T21:42:21.346Z,11.83
2019-04-04T21:44:49.610Z,12.53
2019-04-04T21:47:17.841Z,14.37
2019-04-04T21:49:46.102Z,13.17
2019-04-04T21:52:14.355Z,13.33
2019-04-04T21:54:42.642Z,13.90
2019-04-04T21:57:11.046Z,13.20
2019-04-04T21:59:39.360Z,12.73
2019-04-04T22:02:07.658Z,12.87
2019-04-04T22:04:35.898Z,12.30
2019-04-04T22:07:05.057Z,13.37
2019-04-04T22:09:33.802Z,13.13
2019-04-04T22:12:02.371Z,13.20
2019-04-04T22:14:30.618Z,13.37
2019-04-04T22:16:58.852Z,13.38
2019-04-04T22:19:27.095Z,11.40
2019-04-04T22:21:55.337Z,12.80
2019-04-04T22:24:23.568Z,12.60
2019-04-04T22:26:51.910Z,13.87
2019-04-04T22:29:20.138Z,13.00
2019-04-04T22:31:48.452Z,14.50
2019-04-04T22:34:16.715Z,14.57
2019-04-04T22:36:44.952Z,15.97
2019-04-04T22:39:13.189Z,14.38
2019-04-04T22:41:41.468Z,15.23
2019-04-04T22:44:09.694Z,18.07
2019-04-04T22:46:37.926Z,16.90
2019-04-04T22:49:06.249Z,13.40
2019-04-04T22:51:34.989Z,15.00
2019-04-04T22:54:03.210Z,15.80
2019-04-04T22:56:34.406Z,15.90
2019-04-04T22:59:02.643Z,17.00
2019-04-04T23:01:30.893Z,20.07
2019-04-04T23:03:59.163Z,18.53
2019-04-04T23:06:27.452Z,16.83
2019-04-04T23:08:55.694Z,18.50
2019-04-04T23:11:24.017Z,17.07
2019-04-04T23:13:52.314Z,18.07
2019-04-04T23:16:20.550Z,17.87
2019-04-04T23:18:48.818Z,17.97
2019-04-04T23:21:17.050Z,15.47
2019-04-04T23:23:45.361Z,16.50
2019-04-04T23:26:13.623Z,16.50
2019-04-04T23:28:41.854Z,17.40
2019-04-04T23:31:10.133Z,17.15
2019-04-04T23:33:38.731Z,15.63
2019-04-04T23:36:07.149Z,17.37
2019-04-04T23:38:35.439Z,20.97
2019-04-04T23:41:03.692Z,18.13
2019-04-04T23:43:31.927Z,17.93
2019-04-04T23:46:00.162Z,17.53
2019-04-04T23:48:30.073Z,20.70
2019-04-04T23:50:58.303Z,20.10
2019-04-04T23:53:26.930Z,18.93
2019-04-04T23:55:55.186Z,18.83
2019-04-04T23:58:23.437Z,20.97
